sensor_id;sensor_type;location;lat;lon;timestamp;P1;durP1;ratioP1;P2;durP2;ratioP2
10467;SDS011;5281;48.878;9.394;2022-09-13T00:00:30;2.97;;;2.40;;
10467;SDS011;5281;48.878;9.394;2022-09-13T00:02:57;2.63;;;2.20;;
10467;SDS011;5281;48.878;9.394;2022-09-13T00:05:26;2.90;;;2.10;;
10467;SDS011;5281;48.878;9.394;2022-09-13T00:07:53;3.80;;;2.53;;
10467;SDS011;5281;48.878;9.394;2022-09-13T00:10:21;2.90;;;1.95;;
10467;SDS011;5281;48.878;9.394;2022-09-13T00:12:49;3.47;;;2.15;;
10467;SDS011;5281;48.878;9.394;2022-09-13T00:15:16;4.45;;;2.40;;
10467;SDS011;5281;48.878;9.394;2022-09-13T00:17:43;5.78;;;2.22;;
10467;SDS011;5281;48.878;9.394;2022-09-13T00:20:10;3.05;;;2.40;;
10467;SDS011;5281;48.878;9.394;2022-09-13T00:22:38;2.45;;;2.25;;
10467;SDS011;5281;48.878;9.394;2022-09-13T00:25:06;2.60;;;2.40;;
10467;SDS011;5281;48.878;9.394;2022-09-13T00:27:33;6.40;;;2.30;;
10467;SDS011;5281;48.878;9.394;2022-09-13T00:30:00;2.47;;;2.27;;
10467;SDS011;5281;48.878;9.394;2022-09-13T00:32:28;3.40;;;2.30;;
10467;SDS011;5281;48.878;9.394;2022-09-13T00:34:55;2.72;;;2.20;;
10467;SDS011;5281;48.878;9.394;2022-09-13T00:37:22;3.17;;;2.40;;
10467;SDS011;5281;48.878;9.394;2022-09-13T00:39:50;2.55;;;2.35;;
10467;SDS011;5281;48.878;9.394;2022-09-13T00:42:20;3.78;;;2.35;;
10467;SDS011;5281;48.878;9.394;2022-09-13T00:44:55;3.20;;;2.20;;
10467;SDS011;5281;48.878;9.394;2022-09-13T00:47:24;5.30;;;2.77;;
10467;SDS011;5281;48.878;9.394;2022-09-13T00:49:55;3.10;;;2.30;;
10467;SDS011;5281;48.878;9.394;2022-09-13T00:52:26;2.85;;;2.50;;
10467;SDS011;5281;48.878;9.394;2022-09-13T00:54:59;2.57;;;2.37;;
10467;SDS011;5281;48.878;9.394;2022-09-13T00:57:28;2.60;;;2.40;;
10467;SDS011;5281;48.878;9.394;2022-09-13T00:59:59;2.58;;;2.33;;
10467;SDS011;5281;48.878;9.394;2022-09-13T01:02:35;2.80;;;2.40;;
10467;SDS011;5281;48.878;9.394;2022-09-13T01:05:02;5.13;;;2.53;;
10467;SDS011;5281;48.878;9.394;2022-09-13T01:07:29;4.13;;;2.50;;
10467;SDS011;5281;48.878;9.394;2022-09-13T01:09:56;5.37;;;2.70;;
10467;SDS011;5281;48.878;9.394;2022-09-13T01:12:28;4.13;;;3.10;;
10467;SDS011;5281;48.878;9.394;2022-09-13T01:14:58;4.20;;;3.10;;
10467;SDS011;5281;48.878;9.394;2022-09-13T01:17:28;4.30;;;2.97;;
10467;SDS011;5281;48.878;9.394;2022-09-13T01:19:56;3.90;;;2.78;;
10467;SDS011;5281;48.878;9.394;2022-09-13T01:25:48;3.77;;;3.00;;
10467;SDS011;5281;48.878;9.394;2022-09-13T01:31:34;4.50;;;2.70;;
10467;SDS011;5281;48.878;9.394;2022-09-13T01:34:08;3.77;;;2.60;;
10467;SDS011;5281;48.878;9.394;2022-09-13T01:39:58;4.35;;;2.47;;
10467;SDS011;5281;48.878;9.394;2022-09-13T01:42:35;4.77;;;2.90;;
10467;SDS011;5281;48.878;9.394;2022-09-13T01:45:17;6.80;;;2.50;;
10467;SDS011;5281;48.878;9.394;2022-09-13T01:47:56;3.20;;;2.60;;
10467;SDS011;5281;48.878;9.394;2022-09-13T01:50:28;2.70;;;2.50;;
10467;SDS011;5281;48.878;9.394;2022-09-13T01:53:04;5.13;;;2.53;;
10467;SDS011;5281;48.878;9.394;2022-09-13T01:55:37;3.53;;;2.67;;
10467;SDS011;5281;48.878;9.394;2022-09-13T01:58:13;3.33;;;2.60;;
10467;SDS011;5281;48.878;9.394;2022-09-13T02:00:46;3.00;;;2.70;;
10467;SDS011;5281;48.878;9.394;2022-09-13T02:03:22;5.73;;;2.80;;
10467;SDS011;5281;48.878;9.394;2022-09-13T02:05:55;3.73;;;3.10;;
10467;SDS011;5281;48.878;9.394;2022-09-13T02:08:27;2.63;;;2.40;;
10467;SDS011;5281;48.878;9.394;2022-09-13T02:11:03;3.10;;;2.47;;
10467;SDS011;5281;48.878;9.394;2022-09-13T02:13:34;2.63;;;2.43;;
10467;SDS011;5281;48.878;9.394;2022-09-13T02:16:06;3.03;;;2.70;;
10467;SDS011;5281;48.878;9.394;2022-09-13T02:18:39;4.50;;;2.60;;
10467;SDS011;5281;48.878;9.394;2022-09-13T02:21:10;3.43;;;2.63;;
10467;SDS011;5281;48.878;9.394;2022-09-13T02:23:40;2.83;;;2.50;;
10467;SDS011;5281;48.878;9.394;2022-09-13T02:26:10;4.47;;;2.80;;
10467;SDS011;5281;48.878;9.394;2022-09-13T02:28:41;4.20;;;2.77;;
10467;SDS011;5281;48.878;9.394;2022-09-13T02:31:10;4.40;;;2.70;;
10467;SDS011;5281;48.878;9.394;2022-09-13T02:33:41;3.27;;;2.97;;
10467;SDS011;5281;48.878;9.394;2022-09-13T02:36:12;5.83;;;3.20;;
10467;SDS011;5281;48.878;9.394;2022-09-13T02:38:45;4.13;;;3.30;;
10467;SDS011;5281;48.878;9.394;2022-09-13T02:41:16;3.87;;;3.40;;
10467;SDS011;5281;48.878;9.394;2022-09-13T02:43:48;4.20;;;3.50;;
10467;SDS011;5281;48.878;9.394;2022-09-13T02:46:20;6.30;;;4.10;;
10467;SDS011;5281;48.878;9.394;2022-09-13T02:48:58;5.37;;;3.50;;
10467;SDS011;5281;48.878;9.394;2022-09-13T02:51:32;9.53;;;5.73;;
10467;SDS011;5281;48.878;9.394;2022-09-13T02:54:08;4.77;;;2.50;;
10467;SDS011;5281;48.878;9.394;2022-09-13T02:56:47;2.97;;;2.77;;
10467;SDS011;5281;48.878;9.394;2022-09-13T02:59:19;7.33;;;5.73;;
10467;SDS011;5281;48.878;9.394;2022-09-13T03:01:48;3.90;;;2.70;;
10467;SDS011;5281;48.878;9.394;2022-09-13T03:04:21;3.87;;;2.47;;
10467;SDS011;5281;48.878;9.394;2022-09-13T03:06:48;4.27;;;2.60;;
10467;SDS011;5281;48.878;9.394;2022-09-13T03:09:15;5.20;;;3.07;;
10467;SDS011;5281;48.878;9.394;2022-09-13T03:11:48;3.13;;;2.53;;
10467;SDS011;5281;48.878;9.394;2022-09-13T03:14:28;4.50;;;2.40;;
10467;SDS011;5281;48.878;9.394;2022-09-13T03:17:12;2.67;;;2.43;;
10467;SDS011;5281;48.878;9.394;2022-09-13T03:19:50;3.37;;;2.47;;
10467;SDS011;5281;48.878;9.394;2022-09-13T03:25:30;4.60;;;3.93;;
10467;SDS011;5281;48.878;9.394;2022-09-13T03:28:07;3.83;;;2.60;;
10467;SDS011;5281;48.878;9.394;2022-09-13T03:30:43;3.80;;;2.33;;
10467;SDS011;5281;48.878;9.394;2022-09-13T03:33:17;2.50;;;2.30;;
10467;SDS011;5281;48.878;9.394;2022-09-13T03:35:53;2.80;;;2.47;;
10467;SDS011;5281;48.878;9.394;2022-09-13T03:38:23;3.50;;;2.60;;
10467;SDS011;5281;48.878;9.394;2022-09-13T03:40:56;3.97;;;2.30;;
10467;SDS011;5281;48.878;9.394;2022-09-13T03:43:31;2.63;;;2.40;;
10467;SDS011;5281;48.878;9.394;2022-09-13T03:46:01;3.30;;;3.00;;
10467;SDS011;5281;48.878;9.394;2022-09-13T03:48:31;3.13;;;2.83;;
10467;SDS011;5281;48.878;9.394;2022-09-13T03:51:02;3.00;;;2.67;;
10467;SDS011;5281;48.878;9.394;2022-09-13T03:53:29;5.43;;;2.87;;
10467;SDS011;5281;48.878;9.394;2022-09-13T03:55:58;3.53;;;2.70;;
10467;SDS011;5281;48.878;9.394;2022-09-13T03:58:25;3.10;;;2.77;;
10467;SDS011;5281;48.878;9.394;2022-09-13T04:00:52;3.10;;;2.80;;
10467;SDS011;5281;48.878;9.394;2022-09-13T04:03:19;3.73;;;2.90;;
10467;SDS011;5281;48.878;9.394;2022-09-13T04:05:46;3.63;;;2.57;;
10467;SDS011;5281;48.878;9.394;2022-09-13T04:08:15;3.10;;;2.80;;
10467;SDS011;5281;48.878;9.394;2022-09-13T04:10:42;5.10;;;2.60;;
10467;SDS011;5281;48.878;9.394;2022-09-13T04:13:09;3.33;;;2.90;;
10467;SDS011;5281;48.878;9.394;2022-09-13T04:15:35;4.63;;;2.90;;
10467;SDS011;5281;48.878;9.394;2022-09-13T04:18:02;3.10;;;2.60;;
10467;SDS011;5281;48.878;9.394;2022-09-13T04:20:29;3.33;;;2.70;;
10467;SDS011;5281;48.878;9.394;2022-09-13T04:22:56;3.50;;;3.07;;
10467;SDS011;5281;48.878;9.394;2022-09-13T04:25:24;2.97;;;2.70;;
10467;SDS011;5281;48.878;9.394;2022-09-13T04:27:52;2.83;;;2.50;;
10467;SDS011;5281;48.878;9.394;2022-09-13T04:30:20;5.47;;;2.90;;
10467;SDS011;5281;48.878;9.394;2022-09-13T04:32:47;5.00;;;2.60;;
10467;SDS011;5281;48.878;9.394;2022-09-13T04:35:14;2.83;;;2.53;;
10467;SDS011;5281;48.878;9.394;2022-09-13T04:37:41;4.93;;;2.47;;
10467;SDS011;5281;48.878;9.394;2022-09-13T04:40:09;3.67;;;2.93;;
10467;SDS011;5281;48.878;9.394;2022-09-13T04:42:37;4.77;;;2.80;;
10467;SDS011;5281;48.878;9.394;2022-09-13T04:45:04;4.17;;;2.80;;
10467;SDS011;5281;48.878;9.394;2022-09-13T04:47:32;5.67;;;3.33;;
10467;SDS011;5281;48.878;9.394;2022-09-13T04:49:59;4.13;;;2.57;;
10467;SDS011;5281;48.878;9.394;2022-09-13T04:52:26;6.10;;;3.00;;
10467;SDS011;5281;48.878;9.394;2022-09-13T04:54:53;3.10;;;2.80;;
10467;SDS011;5281;48.878;9.394;2022-09-13T04:57:22;3.13;;;2.83;;
10467;SDS011;5281;48.878;9.394;2022-09-13T04:59:50;3.37;;;2.87;;
10467;SDS011;5281;48.878;9.394;2022-09-13T05:02:17;2.93;;;2.70;;
10467;SDS011;5281;48.878;9.394;2022-09-13T05:04:44;2.93;;;2.70;;
10467;SDS011;5281;48.878;9.394;2022-09-13T05:07:11;3.00;;;2.70;;
10467;SDS011;5281;48.878;9.394;2022-09-13T05:09:38;4.17;;;2.73;;
10467;SDS011;5281;48.878;9.394;2022-09-13T05:12:05;4.30;;;2.80;;
10467;SDS011;5281;48.878;9.394;2022-09-13T05:14:32;4.23;;;3.07;;
10467;SDS011;5281;48.878;9.394;2022-09-13T05:17:00;3.63;;;3.20;;
10467;SDS011;5281;48.878;9.394;2022-09-13T05:19:27;3.13;;;2.83;;
10467;SDS011;5281;48.878;9.394;2022-09-13T05:21:54;5.63;;;3.07;;
10467;SDS011;5281;48.878;9.394;2022-09-13T05:24:20;3.20;;;2.90;;
10467;SDS011;5281;48.878;9.394;2022-09-13T05:26:47;7.80;;;3.60;;
10467;SDS011;5281;48.878;9.394;2022-09-13T05:29:14;3.40;;;3.10;;
10467;SDS011;5281;48.878;9.394;2022-09-13T05:31:41;5.13;;;3.00;;
10467;SDS011;5281;48.878;9.394;2022-09-13T05:34:11;4.70;;;3.10;;
10467;SDS011;5281;48.878;9.394;2022-09-13T05:36:39;3.80;;;2.77;;
10467;SDS011;5281;48.878;9.394;2022-09-13T05:39:08;2.80;;;2.53;;
10467;SDS011;5281;48.878;9.394;2022-09-13T05:41:38;2.97;;;2.60;;
10467;SDS011;5281;48.878;9.394;2022-09-13T05:44:05;3.27;;;2.63;;
10467;SDS011;5281;48.878;9.394;2022-09-13T05:46:32;4.53;;;2.40;;
10467;SDS011;5281;48.878;9.394;2022-09-13T05:48:59;3.53;;;2.80;;
10467;SDS011;5281;48.878;9.394;2022-09-13T05:51:27;5.73;;;2.93;;
10467;SDS011;5281;48.878;9.394;2022-09-13T05:53:53;2.95;;;2.63;;
10467;SDS011;5281;48.878;9.394;2022-09-13T05:56:22;3.90;;;2.60;;
10467;SDS011;5281;48.878;9.394;2022-09-13T05:58:50;4.60;;;2.70;;
10467;SDS011;5281;48.878;9.394;2022-09-13T06:01:18;5.03;;;2.53;;
10467;SDS011;5281;48.878;9.394;2022-09-13T06:03:46;2.87;;;2.60;;
10467;SDS011;5281;48.878;9.394;2022-09-13T06:06:13;2.43;;;2.23;;
10467;SDS011;5281;48.878;9.394;2022-09-13T06:08:42;3.80;;;2.47;;
10467;SDS011;5281;48.878;9.394;2022-09-13T06:11:09;6.60;;;2.30;;
10467;SDS011;5281;48.878;9.394;2022-09-13T06:13:38;6.43;;;2.60;;
10467;SDS011;5281;48.878;9.394;2022-09-13T06:16:07;3.80;;;2.25;;
10467;SDS011;5281;48.878;9.394;2022-09-13T06:18:35;4.38;;;2.47;;
10467;SDS011;5281;48.878;9.394;2022-09-13T06:21:03;4.13;;;2.63;;
10467;SDS011;5281;48.878;9.394;2022-09-13T06:23:31;3.88;;;2.40;;
10467;SDS011;5281;48.878;9.394;2022-09-13T06:26:00;3.80;;;2.70;;
10467;SDS011;5281;48.878;9.394;2022-09-13T06:28:29;3.50;;;2.30;;
10467;SDS011;5281;48.878;9.394;2022-09-13T06:30:59;3.20;;;2.10;;
10467;SDS011;5281;48.878;9.394;2022-09-13T06:33:27;6.57;;;2.35;;
10467;SDS011;5281;48.878;9.394;2022-09-13T06:35:54;3.08;;;2.35;;
10467;SDS011;5281;48.878;9.394;2022-09-13T06:38:24;3.83;;;2.10;;
10467;SDS011;5281;48.878;9.394;2022-09-13T06:40:57;2.75;;;2.13;;
10467;SDS011;5281;48.878;9.394;2022-09-13T06:43:26;2.90;;;2.10;;
10467;SDS011;5281;48.878;9.394;2022-09-13T06:45:57;6.65;;;4.18;;
10467;SDS011;5281;48.878;9.394;2022-09-13T06:48:25;5.30;;;4.25;;
10467;SDS011;5281;48.878;9.394;2022-09-13T06:50:56;7.75;;;5.50;;
10467;SDS011;5281;48.878;9.394;2022-09-13T06:53:23;6.80;;;5.25;;
10467;SDS011;5281;48.878;9.394;2022-09-13T06:55:59;6.55;;;4.22;;
10467;SDS011;5281;48.878;9.394;2022-09-13T06:58:27;3.25;;;2.30;;
10467;SDS011;5281;48.878;9.394;2022-09-13T07:01:03;4.10;;;3.00;;
10467;SDS011;5281;48.878;9.394;2022-09-13T07:03:37;2.80;;;2.08;;
10467;SDS011;5281;48.878;9.394;2022-09-13T07:06:08;5.20;;;2.20;;
10467;SDS011;5281;48.878;9.394;2022-09-13T07:08:36;2.97;;;1.80;;
10467;SDS011;5281;48.878;9.394;2022-09-13T07:11:05;7.00;;;1.60;;
10467;SDS011;5281;48.878;9.394;2022-09-13T07:13:33;2.33;;;1.75;;
10467;SDS011;5281;48.878;9.394;2022-09-13T07:16:01;2.30;;;1.40;;
10467;SDS011;5281;48.878;9.394;2022-09-13T07:18:28;5.25;;;1.60;;
10467;SDS011;5281;48.878;9.394;2022-09-13T07:20:57;2.90;;;1.63;;
10467;SDS011;5281;48.878;9.394;2022-09-13T07:23:26;2.67;;;1.55;;
10467;SDS011;5281;48.878;9.394;2022-09-13T07:25:54;1.83;;;1.63;;
10467;SDS011;5281;48.878;9.394;2022-09-13T07:28:27;3.08;;;1.60;;
10467;SDS011;5281;48.878;9.394;2022-09-13T07:30:55;2.75;;;1.50;;
10467;SDS011;5281;48.878;9.394;2022-09-13T07:33:23;4.15;;;1.90;;
10467;SDS011;5281;48.878;9.394;2022-09-13T07:35:53;1.48;;;1.30;;
10467;SDS011;5281;48.878;9.394;2022-09-13T07:38:21;3.25;;;1.38;;
10467;SDS011;5281;48.878;9.394;2022-09-13T07:40:51;1.48;;;1.33;;
10467;SDS011;5281;48.878;9.394;2022-09-13T07:43:19;3.78;;;1.48;;
10467;SDS011;5281;48.878;9.394;2022-09-13T07:45:48;2.50;;;1.40;;
10467;SDS011;5281;48.878;9.394;2022-09-13T07:48:22;2.60;;;1.58;;
10467;SDS011;5281;48.878;9.394;2022-09-13T07:50:55;2.15;;;1.52;;
10467;SDS011;5281;48.878;9.394;2022-09-13T07:53:23;1.95;;;1.67;;
10467;SDS011;5281;48.878;9.394;2022-09-13T07:55:49;2.92;;;1.67;;
10467;SDS011;5281;48.878;9.394;2022-09-13T07:58:16;4.50;;;1.30;;
10467;SDS011;5281;48.878;9.394;2022-09-13T08:00:43;3.25;;;1.50;;
10467;SDS011;5281;48.878;9.394;2022-09-13T08:03:11;2.33;;;1.20;;
10467;SDS011;5281;48.878;9.394;2022-09-13T08:05:38;3.15;;;1.38;;
10467;SDS011;5281;48.878;9.394;2022-09-13T08:08:05;3.40;;;1.75;;
10467;SDS011;5281;48.878;9.394;2022-09-13T08:10:32;2.70;;;1.42;;
10467;SDS011;5281;48.878;9.394;2022-09-13T08:12:59;2.60;;;1.45;;
10467;SDS011;5281;48.878;9.394;2022-09-13T08:15:26;3.80;;;1.70;;
10467;SDS011;5281;48.878;9.394;2022-09-13T08:17:53;3.58;;;1.65;;
10467;SDS011;5281;48.878;9.394;2022-09-13T08:20:21;5.30;;;3.22;;
10467;SDS011;5281;48.878;9.394;2022-09-13T08:22:48;4.30;;;1.98;;
10467;SDS011;5281;48.878;9.394;2022-09-13T08:25:14;2.38;;;1.58;;
10467;SDS011;5281;48.878;9.394;2022-09-13T08:27:41;1.35;;;1.20;;
10467;SDS011;5281;48.878;9.394;2022-09-13T08:30:08;1.90;;;1.50;;
10467;SDS011;5281;48.878;9.394;2022-09-13T08:32:36;2.20;;;1.48;;
10467;SDS011;5281;48.878;9.394;2022-09-13T08:35:03;3.80;;;1.50;;
10467;SDS011;5281;48.878;9.394;2022-09-13T08:37:31;4.90;;;1.30;;
10467;SDS011;5281;48.878;9.394;2022-09-13T08:39:59;2.60;;;1.30;;
10467;SDS011;5281;48.878;9.394;2022-09-13T08:42:29;1.50;;;1.40;;
10467;SDS011;5281;48.878;9.394;2022-09-13T08:45:09;2.35;;;1.17;;
10467;SDS011;5281;48.878;9.394;2022-09-13T08:47:39;3.65;;;1.63;;
10467;SDS011;5281;48.878;9.394;2022-09-13T08:50:10;2.55;;;1.55;;
10467;SDS011;5281;48.878;9.394;2022-09-13T08:52:46;1.45;;;1.05;;
10467;SDS011;5281;48.878;9.394;2022-09-13T08:55:24;2.33;;;1.52;;
10467;SDS011;5281;48.878;9.394;2022-09-13T08:58:11;1.52;;;1.30;;
10467;SDS011;5281;48.878;9.394;2022-09-13T09:00:52;2.85;;;1.48;;
10467;SDS011;5281;48.878;9.394;2022-09-13T09:03:28;3.40;;;1.52;;
10467;SDS011;5281;48.878;9.394;2022-09-13T09:06:06;2.80;;;1.40;;
10467;SDS011;5281;48.878;9.394;2022-09-13T09:08:40;1.88;;;1.20;;
10467;SDS011;5281;48.878;9.394;2022-09-13T09:11:13;3.78;;;2.03;;
10467;SDS011;5281;48.878;9.394;2022-09-13T09:13:49;2.03;;;1.70;;
10467;SDS011;5281;48.878;9.394;2022-09-13T09:16:25;4.43;;;1.52;;
10467;SDS011;5281;48.878;9.394;2022-09-13T09:18:58;2.75;;;1.40;;
10467;SDS011;5281;48.878;9.394;2022-09-13T09:21:32;3.35;;;1.40;;
10467;SDS011;5281;48.878;9.394;2022-09-13T09:24:01;2.08;;;1.73;;
10467;SDS011;5281;48.878;9.394;2022-09-13T09:26:30;6.47;;;1.33;;
10467;SDS011;5281;48.878;9.394;2022-09-13T09:28:57;2.00;;;1.38;;
10467;SDS011;5281;48.878;9.394;2022-09-13T09:31:29;3.47;;;1.30;;
10467;SDS011;5281;48.878;9.394;2022-09-13T09:34:06;3.03;;;1.33;;
10467;SDS011;5281;48.878;9.394;2022-09-13T09:36:39;3.45;;;1.30;;
10467;SDS011;5281;48.878;9.394;2022-09-13T09:39:12;3.13;;;1.63;;
10467;SDS011;5281;48.878;9.394;2022-09-13T09:41:40;4.10;;;1.70;;
10467;SDS011;5281;48.878;9.394;2022-09-13T09:44:13;2.15;;;1.30;;
10467;SDS011;5281;48.878;9.394;2022-09-13T09:46:45;1.95;;;1.50;;
10467;SDS011;5281;48.878;9.394;2022-09-13T09:49:16;1.40;;;1.30;;
10467;SDS011;5281;48.878;9.394;2022-09-13T09:52:02;2.45;;;1.50;;
10467;SDS011;5281;48.878;9.394;2022-09-13T09:54:34;2.65;;;1.42;;
10467;SDS011;5281;48.878;9.394;2022-09-13T09:57:03;5.43;;;1.77;;
10467;SDS011;5281;48.878;9.394;2022-09-13T09:59:31;2.45;;;1.48;;
10467;SDS011;5281;48.878;9.394;2022-09-13T10:01:59;1.30;;;1.20;;
10467;SDS011;5281;48.878;9.394;2022-09-13T10:04:28;2.20;;;1.20;;
10467;SDS011;5281;48.878;9.394;2022-09-13T10:07:07;1.98;;;1.33;;
10467;SDS011;5281;48.878;9.394;2022-09-13T10:09:37;3.75;;;1.27;;
10467;SDS011;5281;48.878;9.394;2022-09-13T10:12:05;1.65;;;1.10;;
10467;SDS011;5281;48.878;9.394;2022-09-13T10:14:36;2.45;;;1.30;;
10467;SDS011;5281;48.878;9.394;2022-09-13T10:17:05;3.00;;;1.40;;
10467;SDS011;5281;48.878;9.394;2022-09-13T10:19:52;1.50;;;1.08;;
10467;SDS011;5281;48.878;9.394;2022-09-13T10:22:22;1.20;;;1.10;;
10467;SDS011;5281;48.878;9.394;2022-09-13T10:24:51;1.65;;;1.17;;
10467;SDS011;5281;48.878;9.394;2022-09-13T10:27:23;2.17;;;1.88;;
10467;SDS011;5281;48.878;9.394;2022-09-13T10:29:55;2.47;;;1.25;;
10467;SDS011;5281;48.878;9.394;2022-09-13T10:32:24;2.58;;;1.40;;
10467;SDS011;5281;48.878;9.394;2022-09-13T10:34:52;3.25;;;1.30;;
10467;SDS011;5281;48.878;9.394;2022-09-13T10:37:21;1.88;;;1.38;;
10467;SDS011;5281;48.878;9.394;2022-09-13T10:39:54;1.80;;;1.05;;
10467;SDS011;5281;48.878;9.394;2022-09-13T10:42:24;2.78;;;1.30;;
10467;SDS011;5281;48.878;9.394;2022-09-13T10:44:54;1.45;;;1.08;;
10467;SDS011;5281;48.878;9.394;2022-09-13T10:47:23;3.17;;;1.30;;
10467;SDS011;5281;48.878;9.394;2022-09-13T10:49:55;1.75;;;1.27;;
10467;SDS011;5281;48.878;9.394;2022-09-13T10:52:24;1.27;;;0.70;;
10467;SDS011;5281;48.878;9.394;2022-09-13T10:57:49;2.25;;;1.33;;
10467;SDS011;5281;48.878;9.394;2022-09-13T11:00:18;2.40;;;1.17;;
10467;SDS011;5281;48.878;9.394;2022-09-13T11:03:03;1.17;;;1.00;;
10467;SDS011;5281;48.878;9.394;2022-09-13T11:05:44;2.35;;;1.02;;
10467;SDS011;5281;48.878;9.394;2022-09-13T11:08:24;2.05;;;1.20;;
10467;SDS011;5281;48.878;9.394;2022-09-13T11:11:03;2.50;;;1.00;;
10467;SDS011;5281;48.878;9.394;2022-09-13T11:13:41;1.55;;;1.17;;
10467;SDS011;5281;48.878;9.394;2022-09-13T11:16:22;4.35;;;2.55;;
10467;SDS011;5281;48.878;9.394;2022-09-13T11:19:13;2.03;;;1.17;;
10467;SDS011;5281;48.878;9.394;2022-09-13T11:22:04;2.53;;;0.88;;
10467;SDS011;5281;48.878;9.394;2022-09-13T11:24:54;1.58;;;0.93;;
10467;SDS011;5281;48.878;9.394;2022-09-13T11:27:30;2.00;;;0.90;;
10467;SDS011;5281;48.878;9.394;2022-09-13T11:30:07;1.48;;;0.70;;
10467;SDS011;5281;48.878;9.394;2022-09-13T11:32:45;2.33;;;0.95;;
10467;SDS011;5281;48.878;9.394;2022-09-13T11:35:35;1.30;;;0.80;;
10467;SDS011;5281;48.878;9.394;2022-09-13T11:38:18;1.13;;;1.00;;
10467;SDS011;5281;48.878;9.394;2022-09-13T11:40:55;2.55;;;1.00;;
10467;SDS011;5281;48.878;9.394;2022-09-13T11:43:31;1.42;;;1.25;;
10467;SDS011;5281;48.878;9.394;2022-09-13T11:46:11;3.17;;;0.90;;
10467;SDS011;5281;48.878;9.394;2022-09-13T11:48:49;1.52;;;1.00;;
10467;SDS011;5281;48.878;9.394;2022-09-13T11:51:32;4.65;;;1.60;;
10467;SDS011;5281;48.878;9.394;2022-09-13T11:54:11;3.92;;;1.13;;
10467;SDS011;5281;48.878;9.394;2022-09-13T11:56:55;2.17;;;1.15;;
10467;SDS011;5281;48.878;9.394;2022-09-13T11:59:31;2.80;;;1.35;;
10467;SDS011;5281;48.878;9.394;2022-09-13T12:02:09;1.05;;;0.95;;
10467;SDS011;5281;48.878;9.394;2022-09-13T12:04:44;3.60;;;0.90;;
10467;SDS011;5281;48.878;9.394;2022-09-13T12:07:19;1.98;;;1.00;;
10467;SDS011;5281;48.878;9.394;2022-09-13T12:09:56;1.65;;;0.80;;
10467;SDS011;5281;48.878;9.394;2022-09-13T12:12:30;2.55;;;0.98;;
10467;SDS011;5281;48.878;9.394;2022-09-13T12:15:01;2.50;;;1.00;;
10467;SDS011;5281;48.878;9.394;2022-09-13T12:17:35;2.00;;;1.10;;
10467;SDS011;5281;48.878;9.394;2022-09-13T12:20:10;1.23;;;0.55;;
10467;SDS011;5281;48.878;9.394;2022-09-13T12:22:43;4.40;;;1.08;;
10467;SDS011;5281;48.878;9.394;2022-09-13T12:25:16;3.22;;;1.10;;
10467;SDS011;5281;48.878;9.394;2022-09-13T12:27:47;6.80;;;1.70;;
10467;SDS011;5281;48.878;9.394;2022-09-13T12:30:22;1.15;;;0.80;;
10467;SDS011;5281;48.878;9.394;2022-09-13T12:32:54;2.20;;;0.90;;
10467;SDS011;5281;48.878;9.394;2022-09-13T12:35:23;1.70;;;0.80;;
10467;SDS011;5281;48.878;9.394;2022-09-13T12:38:02;1.10;;;0.80;;
10467;SDS011;5281;48.878;9.394;2022-09-13T12:40:53;2.30;;;0.80;;
10467;SDS011;5281;48.878;9.394;2022-09-13T12:46:22;1.20;;;0.90;;
10467;SDS011;5281;48.878;9.394;2022-09-13T12:49:14;4.10;;;1.00;;
10467;SDS011;5281;48.878;9.394;2022-09-13T12:51:55;1.10;;;0.90;;
10467;SDS011;5281;48.878;9.394;2022-09-13T12:54:37;2.70;;;1.30;;
10467;SDS011;5281;48.878;9.394;2022-09-13T12:57:24;0.77;;;0.73;;
10467;SDS011;5281;48.878;9.394;2022-09-13T13:00:07;0.77;;;0.60;;
10467;SDS011;5281;48.878;9.394;2022-09-13T13:02:37;3.65;;;1.20;;
10467;SDS011;5281;48.878;9.394;2022-09-13T13:05:17;1.48;;;0.60;;
10467;SDS011;5281;48.878;9.394;2022-09-13T13:07:50;1.63;;;0.90;;
10467;SDS011;5281;48.878;9.394;2022-09-13T13:10:26;2.70;;;0.70;;
10467;SDS011;5281;48.878;9.394;2022-09-13T13:12:57;3.35;;;0.80;;
10467;SDS011;5281;48.878;9.394;2022-09-13T13:18:50;0.70;;;0.70;;
10467;SDS011;5281;48.878;9.394;2022-09-13T13:21:29;1.63;;;1.00;;
10467;SDS011;5281;48.878;9.394;2022-09-13T13:27:07;1.52;;;0.70;;
10467;SDS011;5281;48.878;9.394;2022-09-13T13:33:20;1.27;;;0.68;;
10467;SDS011;5281;48.878;9.394;2022-09-13T13:35:49;1.58;;;0.75;;
10467;SDS011;5281;48.878;9.394;2022-09-13T13:50:29;1.02;;;0.50;;
10467;SDS011;5281;48.878;9.394;2022-09-13T13:52:56;0.70;;;0.60;;
10467;SDS011;5281;48.878;9.394;2022-09-13T13:55:42;0.90;;;0.68;;
10467;SDS011;5281;48.878;9.394;2022-09-13T13:58:28;0.68;;;0.52;;
10467;SDS011;5281;48.878;9.394;2022-09-13T14:00:59;0.77;;;0.70;;
10467;SDS011;5281;48.878;9.394;2022-09-13T14:03:32;1.50;;;1.00;;
10467;SDS011;5281;48.878;9.394;2022-09-13T14:06:13;0.60;;;0.60;;
10467;SDS011;5281;48.878;9.394;2022-09-13T14:08:45;1.85;;;0.57;;
10467;SDS011;5281;48.878;9.394;2022-09-13T14:11:32;2.25;;;1.05;;
10467;SDS011;5281;48.878;9.394;2022-09-13T14:14:17;2.60;;;1.05;;
10467;SDS011;5281;48.878;9.394;2022-09-13T14:16:59;1.92;;;1.00;;
10467;SDS011;5281;48.878;9.394;2022-09-13T14:19:41;1.85;;;0.90;;
10467;SDS011;5281;48.878;9.394;2022-09-13T14:22:12;1.05;;;0.80;;
10467;SDS011;5281;48.878;9.394;2022-09-13T14:24:41;6.13;;;1.20;;
10467;SDS011;5281;48.878;9.394;2022-09-13T14:27:15;1.45;;;0.68;;
10467;SDS011;5281;48.878;9.394;2022-09-13T14:29:46;2.38;;;0.93;;
10467;SDS011;5281;48.878;9.394;2022-09-13T14:32:15;4.43;;;1.20;;
10467;SDS011;5281;48.878;9.394;2022-09-13T14:34:52;1.40;;;1.30;;
10467;SDS011;5281;48.878;9.394;2022-09-13T14:37:23;1.38;;;1.00;;
10467;SDS011;5281;48.878;9.394;2022-09-13T14:39:54;3.08;;;1.30;;
10467;SDS011;5281;48.878;9.394;2022-09-13T14:42:24;4.20;;;0.90;;
10467;SDS011;5281;48.878;9.394;2022-09-13T14:44:51;1.30;;;1.20;;
10467;SDS011;5281;48.878;9.394;2022-09-13T14:47:20;2.15;;;1.10;;
10467;SDS011;5281;48.878;9.394;2022-09-13T14:49:53;1.40;;;1.15;;
10467;SDS011;5281;48.878;9.394;2022-09-13T14:52:26;2.72;;;1.15;;
10467;SDS011;5281;48.878;9.394;2022-09-13T14:54:56;2.05;;;1.15;;
10467;SDS011;5281;48.878;9.394;2022-09-13T14:57:30;0.70;;;0.70;;
10467;SDS011;5281;48.878;9.394;2022-09-13T15:00:00;2.83;;;0.88;;
10467;SDS011;5281;48.878;9.394;2022-09-13T15:02:31;2.78;;;0.93;;
10467;SDS011;5281;48.878;9.394;2022-09-13T15:05:03;2.13;;;1.40;;
10467;SDS011;5281;48.878;9.394;2022-09-13T15:07:33;1.20;;;0.77;;
10467;SDS011;5281;48.878;9.394;2022-09-13T15:10:06;1.02;;;0.90;;
10467;SDS011;5281;48.878;9.394;2022-09-13T15:12:49;2.22;;;0.90;;
10467;SDS011;5281;48.878;9.394;2022-09-13T15:15:22;4.90;;;1.00;;
10467;SDS011;5281;48.878;9.394;2022-09-13T15:17:58;3.67;;;1.00;;
10467;SDS011;5281;48.878;9.394;2022-09-13T15:20:27;1.55;;;1.00;;
10467;SDS011;5281;48.878;9.394;2022-09-13T15:23:09;1.05;;;0.80;;
10467;SDS011;5281;48.878;9.394;2022-09-13T15:25:40;2.17;;;0.90;;
10467;SDS011;5281;48.878;9.394;2022-09-13T15:28:19;1.55;;;0.85;;
10467;SDS011;5281;48.878;9.394;2022-09-13T15:30:48;0.88;;;0.70;;
10467;SDS011;5281;48.878;9.394;2022-09-13T15:33:17;1.80;;;0.80;;
10467;SDS011;5281;48.878;9.394;2022-09-13T15:35:48;2.63;;;0.95;;
10467;SDS011;5281;48.878;9.394;2022-09-13T15:38:18;1.02;;;0.70;;
10467;SDS011;5281;48.878;9.394;2022-09-13T15:41:01;1.50;;;0.68;;
10467;SDS011;5281;48.878;9.394;2022-09-13T15:43:38;1.05;;;0.63;;
10467;SDS011;5281;48.878;9.394;2022-09-13T15:46:05;2.60;;;0.70;;
10467;SDS011;5281;48.878;9.394;2022-09-13T15:48:32;3.10;;;0.85;;
10467;SDS011;5281;48.878;9.394;2022-09-13T15:51:07;1.08;;;0.98;;
10467;SDS011;5281;48.878;9.394;2022-09-13T15:53:35;2.03;;;0.82;;
10467;SDS011;5281;48.878;9.394;2022-09-13T15:56:04;1.83;;;0.98;;
10467;SDS011;5281;48.878;9.394;2022-09-13T15:58:32;1.60;;;0.80;;
10467;SDS011;5281;48.878;9.394;2022-09-13T16:01:01;3.10;;;0.93;;
10467;SDS011;5281;48.878;9.394;2022-09-13T16:03:29;1.52;;;0.75;;
10467;SDS011;5281;48.878;9.394;2022-09-13T16:05:56;2.95;;;0.80;;
10467;SDS011;5281;48.878;9.394;2022-09-13T16:08:23;0.70;;;0.68;;